Time;durP1;ratioP1;P1;durP2;ratioP2;P2;SDS_P1;SDS_P2;PMS_P1;PMS_P2;Temp;Humidity;BMP_temperature;BMP_pressure;BME280_temperature;BME280_humidity;BME280_pressure;Samples;Min_cycle;Max_cycle;Signal;HPM_P1;HPM_P2
2021/01/03 00:05:39;;;;;;;13.27;9.10;;;3.60;99.90;;;;;;5017037;23;20496;-86
2021/01/03 00:08:05;;;;;;;12.90;9.10;;;3.50;99.90;;;;;;4961625;28;20453;-87
2021/01/03 00:10:32;;;;;;;9.20;8.07;;;3.60;99.90;;;;;;4961708;28;20444;-87
2021/01/03 00:12:59;;;;;;;10.23;8.10;;;3.60;99.90;;;;;;4956216;28;20526;-87
2021/01/03 00:15:26;;;;;;;11.20;7.93;;;3.60;99.90;;;;;;4952679;28;20467;-87
2021/01/03 00:17:53;;;;;;;10.70;9.53;;;3.60;99.90;;;;;;4954238;28;20459;-87
2021/01/03 00:20:23;;;;;;;9.63;8.37;;;3.60;99.90;;;;;;4956266;28;20459;-87
2021/01/03 00:22:50;;;;;;;9.83;7.77;;;3.60;99.90;;;;;;4956574;28;20545;-87
2021/01/03 00:25:19;;;;;;;11.20;9.37;;;3.50;99.90;;;;;;4956793;28;20463;-87
2021/01/03 00:27:46;;;;;;;9.70;8.70;;;3.60;99.90;;;;;;4957006;29;20460;-86
2021/01/03 00:30:15;;;;;;;10.10;8.93;;;3.60;99.90;;;;;;4957302;28;20464;-87
2021/01/03 00:32:42;;;;;;;11.03;9.77;;;3.60;99.90;;;;;;4987946;23;20498;-86
2021/01/03 00:35:10;;;;;;;12.70;9.27;;;3.50;99.90;;;;;;4956983;28;20455;-87
2021/01/03 00:37:38;;;;;;;10.33;9.23;;;3.60;99.90;;;;;;4956633;28;20440;-87
2021/01/03 00:40:07;;;;;;;12.97;9.60;;;3.50;99.90;;;;;;4956851;28;20949;-86
2021/01/03 00:42:35;;;;;;;9.47;8.57;;;3.50;99.90;;;;;;4956418;28;20543;-86
2021/01/03 00:45:01;;;;;;;10.17;9.17;;;3.60;99.90;;;;;;4956730;28;20962;-87
2021/01/03 00:47:28;;;;;;;10.27;8.03;;;3.50;99.90;;;;;;4956594;28;20825;-86
2021/01/03 00:49:55;;;;;;;10.00;8.93;;;3.60;99.90;;;;;;4956461;28;20464;-86
2021/01/03 00:52:21;;;;;;;9.87;8.50;;;3.60;99.90;;;;;;4956305;28;20564;-86
2021/01/03 00:54:47;;;;;;;9.33;7.93;;;3.60;99.90;;;;;;4956102;28;20969;-86
2021/01/03 00:57:15;;;;;;;10.37;9.20;;;3.60;99.90;;;;;;4956376;28;21036;-86
2021/01/03 00:59:45;;;;;;;10.13;8.13;;;3.60;99.90;;;;;;4956744;28;20466;-87
2021/01/03 01:02:11;;;;;;;9.87;8.77;;;3.50;99.90;;;;;;4956092;28;20504;-86
2021/01/03 01:04:37;;;;;;;10.10;8.50;;;3.60;99.90;;;;;;4955653;28;20452;-87
2021/01/03 01:07:03;;;;;;;11.13;8.63;;;3.60;99.90;;;;;;4955919;28;20457;-87
2021/01/03 01:09:29;;;;;;;9.80;8.10;;;3.60;99.90;;;;;;4955737;28;20553;-88
2021/01/03 01:11:56;;;;;;;10.30;8.30;;;3.60;99.90;;;;;;4955969;28;20479;-86
2021/01/03 01:14:23;;;;;;;9.77;8.50;;;3.50;99.90;;;;;;4955651;28;20483;-86
2021/01/03 01:16:50;;;;;;;10.97;8.70;;;3.60;99.90;;;;;;4955736;28;20535;-86
2021/01/03 01:19:16;;;;;;;8.27;7.47;;;3.60;99.90;;;;;;4955692;28;20524;-86
2021/01/03 01:21:42;;;;;;;9.10;8.13;;;3.50;99.90;;;;;;4955515;28;20456;-86
2021/01/03 01:24:09;;;;;;;9.90;8.90;;;3.50;99.90;;;;;;4955379;29;20461;-86
2021/01/03 01:26:35;;;;;;;9.60;8.60;;;3.50;99.90;;;;;;4955200;28;20449;-86
2021/01/03 01:29:01;;;;;;;11.57;9.00;;;3.40;99.90;;;;;;4955252;28;20451;-86
2021/01/03 01:31:28;;;;;;;10.70;9.10;;;3.40;99.90;;;;;;4955346;28;20457;-86
2021/01/03 01:33:54;;;;;;;10.63;9.17;;;3.50;99.90;;;;;;4936337;29;20520;-87
2021/01/03 01:36:20;;;;;;;10.40;8.57;;;3.50;99.90;;;;;;4935948;29;20452;-86
2021/01/03 01:38:46;;;;;;;11.00;9.27;;;3.50;99.90;;;;;;4948982;28;20525;-87
2021/01/03 01:41:13;;;;;;;9.17;8.27;;;3.50;99.90;;;;;;4955226;28;20479;-86
2021/01/03 01:43:39;;;;;;;10.40;8.60;;;3.50;99.90;;;;;;4955128;28;20493;-86
2021/01/03 01:46:05;;;;;;;11.50;9.93;;;3.50;99.90;;;;;;4954997;28;20441;-86
2021/01/03 01:48:36;;;;;;;9.40;8.40;;;3.50;99.90;;;;;;4955093;28;20452;-86
2021/01/03 01:51:05;;;;;;;12.30;10.20;;;3.40;99.90;;;;;;4955314;28;20448;-86
2021/01/03 01:53:40;;;;;;;10.73;9.63;;;3.40;99.90;;;;;;4954695;28;20563;-86
2021/01/03 01:56:11;;;;;;;12.40;9.70;;;3.40;99.90;;;;;;4954508;28;20459;-86
2021/01/03 01:58:47;;;;;;;11.40;9.87;;;3.40;99.90;;;;;;4955073;28;20514;-86
2021/01/03 02:01:17;;;;;;;12.83;10.77;;;3.50;99.90;;;;;;4954964;28;20824;-86
2021/01/03 02:03:49;;;;;;;10.37;9.03;;;3.40;99.90;;;;;;4954854;28;21055;-86
2021/01/03 02:06:22;;;;;;;12.07;10.80;;;3.30;99.90;;;;;;4954175;28;20451;-86
2021/01/03 02:08:53;;;;;;;13.55;12.13;;;3.30;99.90;;;;;;4954714;28;20505;-86
2021/01/03 02:11:23;;;;;;;12.93;11.50;;;3.30;99.90;;;;;;4954649;28;20677;-86
2021/01/03 02:13:53;;;;;;;11.57;10.03;;;3.20;99.90;;;;;;4954779;28;20452;-86
2021/01/03 02:16:21;;;;;;;14.00;11.23;;;3.20;99.90;;;;;;4954307;28;20456;-86
2021/01/03 02:18:51;;;;;;;13.18;11.18;;;3.20;99.90;;;;;;4954688;28;20957;-86
2021/01/03 02:21:24;;;;;;;15.23;12.30;;;3.20;99.90;;;;;;4954048;28;20231;-87
2021/01/03 02:24:02;;;;;;;13.97;12.60;;;3.20;99.90;;;;;;4954378;28;20515;-86
2021/01/03 02:26:34;;;;;;;14.73;11.90;;;3.10;99.90;;;;;;4954089;28;20458;-86
2021/01/03 02:29:01;;;;;;;15.00;12.30;;;3.10;99.90;;;;;;4954430;29;20836;-86
2021/01/03 02:31:31;;;;;;;13.10;10.57;;;3.00;99.90;;;;;;4954081;28;20459;-86
2021/01/03 02:33:59;;;;;;;14.03;11.50;;;3.00;99.90;;;;;;4954113;29;20469;-86
2021/01/03 02:36:30;;;;;;;14.10;12.70;;;2.90;99.90;;;;;;4953796;28;20479;-86
2021/01/03 02:39:17;;;;;;;18.73;14.18;;;2.90;99.90;;;;;;4954332;29;20513;-86
2021/01/03 02:41:44;;;;;;;15.93;13.27;;;2.80;99.90;;;;;;4953115;28;20243;-86
2021/01/03 02:44:11;;;;;;;16.45;13.30;;;2.80;99.90;;;;;;4954194;28;20463;-86
2021/01/03 02:46:38;;;;;;;17.33;14.10;;;2.70;99.90;;;;;;4953699;29;20209;-86
2021/01/03 02:49:04;;;;;;;15.37;13.73;;;2.60;99.90;;;;;;4955532;29;20535;-86
2021/01/03 02:51:35;;;;;;;18.03;14.13;;;2.60;99.90;;;;;;4954603;28;20465;-86
2021/01/03 02:54:01;;;;;;;17.45;15.48;;;2.50;99.90;;;;;;4953928;28;20440;-87
2021/01/03 02:56:28;;;;;;;18.43;14.70;;;2.40;99.90;;;;;;4953225;28;20270;-86
2021/01/03 02:58:55;;;;;;;17.88;14.52;;;2.40;99.90;;;;;;4953900;28;20457;-86
2021/01/03 03:01:21;;;;;;;19.83;14.98;;;2.40;99.90;;;;;;4953630;29;20689;-86
2021/01/03 03:03:47;;;;;;;16.75;14.70;;;2.30;99.90;;;;;;4953665;28;20600;-86
2021/01/03 03:06:13;;;;;;;18.58;15.63;;;2.20;99.90;;;;;;4953466;28;20213;-86
2021/01/03 03:08:40;;;;;;;21.15;17.10;;;2.20;99.90;;;;;;4953552;28;20211;-86
2021/01/03 03:11:06;;;;;;;21.30;16.17;;;2.20;99.90;;;;;;4953493;29;20201;-86
2021/01/03 03:13:32;;;;;;;24.30;17.90;;;2.20;99.90;;;;;;4953199;29;20474;-86
2021/01/03 03:15:59;;;;;;;18.90;14.88;;;2.20;99.90;;;;;;4953297;28;20451;-86
2021/01/03 03:18:26;;;;;;;21.73;16.53;;;2.30;99.90;;;;;;4953433;28;20229;-86
2021/01/03 03:20:53;;;;;;;17.67;14.70;;;2.30;99.90;;;;;;4953326;28;21092;-86
2021/01/03 03:23:19;;;;;;;23.50;17.00;;;2.20;99.90;;;;;;4953343;28;20496;-86
2021/01/03 03:25:45;;;;;;;21.73;16.25;;;2.20;99.90;;;;;;4953104;29;20266;-86
2021/01/03 03:28:11;;;;;;;24.73;17.50;;;2.20;99.90;;;;;;4953381;28;20676;-86
2021/01/03 03:30:37;;;;;;;22.58;18.30;;;2.20;99.90;;;;;;4953127;28;20489;-86
2021/01/03 03:33:05;;;;;;;25.20;17.55;;;2.20;99.90;;;;;;4952883;28;20219;-86
2021/01/03 03:35:35;;;;;;;24.50;18.23;;;2.20;99.90;;;;;;4952799;28;20203;-86
2021/01/03 03:38:02;;;;;;;26.27;19.08;;;2.10;99.90;;;;;;4953526;28;20475;-86
2021/01/03 03:40:28;;;;;;;22.95;17.48;;;2.10;99.90;;;;;;4953224;28;20207;-85
2021/01/03 03:42:55;;;;;;;22.42;18.58;;;2.10;99.90;;;;;;4953066;29;20226;-87
2021/01/03 03:45:21;;;;;;;21.55;17.23;;;2.10;99.90;;;;;;4952575;28;20198;-86
2021/01/03 03:47:47;;;;;;;25.08;19.05;;;2.10;99.90;;;;;;4953347;28;20213;-85
2021/01/03 03:50:16;;;;;;;23.83;18.37;;;2.10;99.90;;;;;;4953225;28;20206;-86
2021/01/03 03:52:43;;;;;;;23.08;19.30;;;2.10;99.90;;;;;;4955510;28;20903;-85
2021/01/03 03:55:10;;;;;;;24.50;18.45;;;2.20;99.90;;;;;;4956730;28;20210;-86
2021/01/03 03:57:36;;;;;;;24.40;19.38;;;2.20;99.90;;;;;;4956956;28;20681;-85
2021/01/03 04:00:04;;;;;;;23.95;19.30;;;2.10;99.90;;;;;;4957109;28;20234;-85
2021/01/03 04:02:30;;;;;;;26.15;19.35;;;2.10;99.90;;;;;;4956525;28;20229;-86
2021/01/03 04:04:56;;;;;;;23.50;19.48;;;2.10;99.90;;;;;;4955269;28;20235;-86
2021/01/03 04:07:23;;;;;;;28.67;20.73;;;2.10;99.90;;;;;;4956797;28;20676;-87
2021/01/03 04:09:49;;;;;;;27.50;20.65;;;2.10;99.90;;;;;;4956785;28;20205;-87
2021/01/03 04:12:16;;;;;;;23.20;18.08;;;2.10;99.90;;;;;;4957106;28;20225;-87
2021/01/03 04:14:43;;;;;;;28.50;20.70;;;2.10;99.90;;;;;;4956678;28;20277;-87
2021/01/03 04:17:09;;;;;;;28.63;19.90;;;2.10;99.90;;;;;;4956664;28;20683;-87
2021/01/03 04:19:37;;;;;;;25.33;18.27;;;2.10;99.90;;;;;;4956770;28;20200;-86
2021/01/03 04:22:06;;;;;;;27.70;19.83;;;2.10;99.90;;;;;;4956580;28;20313;-86
2021/01/03 04:24:34;;;;;;;24.73;19.88;;;2.10;99.90;;;;;;4956372;28;20231;-86
2021/01/03 04:27:03;;;;;;;28.30;21.58;;;2.00;99.90;;;;;;4956826;28;20202;-86
2021/01/03 04:29:30;;;;;;;25.65;20.38;;;2.00;99.90;;;;;;4956837;28;20681;-87
2021/01/03 04:31:58;;;;;;;24.05;18.80;;;2.10;99.90;;;;;;4956747;28;20222;-86
2021/01/03 04:34:26;;;;;;;22.35;18.55;;;2.10;99.90;;;;;;4956722;28;20203;-86
2021/01/03 04:36:54;;;;;;;24.27;18.80;;;2.10;99.90;;;;;;4956396;28;20694;-86
2021/01/03 04:39:22;;;;;;;26.17;20.10;;;2.10;99.90;;;;;;4937246;29;20211;-86
2021/01/03 04:52:32;;;;;;;28.88;20.13;;;2.00;99.90;;;;;;4954421;28;20837;-87
2021/01/03 04:55:13;;;;;;;25.35;18.27;;;2.00;99.90;;;;;;4956179;28;20268;-87
2021/01/03 04:57:48;;;;;;;27.27;18.70;;;2.00;99.90;;;;;;4956192;28;20690;-87
2021/01/03 05:00:16;;;;;;;28.65;20.27;;;2.00;99.90;;;;;;4937228;28;20208;-86
2021/01/03 05:03:05;;;;;;;27.10;18.90;;;2.00;99.90;;;;;;4936609;29;20269;-86
2021/01/03 05:05:34;;;;;;;26.02;19.88;;;1.90;99.90;;;;;;4936800;28;20205;-86
2021/01/03 05:08:19;;;;;;;28.10;20.63;;;1.90;99.90;;;;;;4936773;29;20262;-87
2021/01/03 05:10:46;;;;;;;30.10;20.58;;;2.00;99.90;;;;;;4938661;29;20207;-86
2021/01/03 05:13:29;;;;;;;27.70;20.58;;;1.90;99.90;;;;;;4939441;29;20227;-86
2021/01/03 05:15:57;;;;;;;29.10;21.38;;;2.00;99.90;;;;;;4936438;29;20222;-86
2021/01/03 05:18:23;;;;;;;32.72;23.00;;;2.00;99.90;;;;;;4936645;29;20205;-87
2021/01/03 05:20:54;;;;;;;28.35;21.02;;;2.00;99.90;;;;;;4952219;28;20226;-86
2021/01/03 05:23:25;;;;;;;28.17;21.17;;;2.00;99.90;;;;;;4955403;28;20731;-86
2021/01/03 05:25:53;;;;;;;26.63;19.85;;;2.00;99.90;;;;;;4955545;28;20217;-86
2021/01/03 05:28:23;;;;;;;27.27;21.08;;;2.00;99.90;;;;;;4955277;28;20240;-86
2021/01/03 05:30:50;;;;;;;31.00;21.48;;;2.00;99.90;;;;;;4955532;28;20269;-86
2021/01/03 05:33:27;;;;;;;31.55;22.20;;;2.00;99.90;;;;;;4951781;28;20222;-87
2021/01/03 05:35:54;;;;;;;25.83;19.90;;;2.10;99.90;;;;;;4936649;29;20218;-87
2021/01/03 05:38:38;;;;;;;28.40;20.30;;;2.00;99.90;;;;;;4936201;29;20699;-86
2021/01/03 05:41:16;;;;;;;28.23;20.85;;;2.00;99.90;;;;;;4936213;29;20215;-86
2021/01/03 05:43:46;;;;;;;25.67;19.45;;;2.10;99.90;;;;;;4935188;29;20231;-86
2021/01/03 05:46:24;;;;;;;25.23;18.25;;;2.10;99.90;;;;;;4935987;29;20672;-87
2021/01/03 05:49:01;;;;;;;26.77;20.25;;;2.10;99.90;;;;;;4936418;29;20246;-86
2021/01/03 05:51:39;;;;;;;26.88;19.58;;;2.10;99.90;;;;;;4949908;28;20258;-86
2021/01/03 05:54:12;;;;;;;23.65;18.08;;;2.10;99.90;;;;;;4955739;28;20289;-87
2021/01/03 05:56:39;;;;;;;23.48;18.75;;;2.10;99.90;;;;;;4955020;28;20313;-86
2021/01/03 05:59:06;;;;;;;27.88;19.98;;;2.10;99.90;;;;;;4955243;28;20216;-87
2021/01/03 06:04:12;;;;;;;25.40;19.30;;;2.10;99.90;;;;;;4953231;26;20231;-86
2021/01/03 06:06:57;;;;;;;24.27;18.83;;;2.20;99.90;;;;;;4954756;28;20201;-86
2021/01/03 06:09:35;;;;;;;27.02;19.80;;;2.10;99.90;;;;;;4955349;28;20664;-87
2021/01/03 06:12:06;;;;;;;27.67;20.38;;;2.10;99.90;;;;;;4954979;29;20296;-87
2021/01/03 06:14:34;;;;;;;25.63;19.55;;;2.10;99.90;;;;;;4954973;28;20678;-86
2021/01/03 06:17:07;;;;;;;27.80;21.30;;;2.10;99.90;;;;;;4954887;28;20208;-86
2021/01/03 06:19:36;;;;;;;23.48;19.08;;;2.20;99.90;;;;;;4954770;28;20221;-86
2021/01/03 06:22:11;;;;;;;27.27;20.88;;;2.20;99.90;;;;;;4954513;28;20778;-87
2021/01/03 06:24:42;;;;;;;24.50;17.40;;;2.20;99.90;;;;;;4938087;28;20219;-86
2021/01/03 06:27:19;;;;;;;22.10;18.13;;;2.10;99.90;;;;;;4935242;29;20213;-86
2021/01/03 06:29:50;;;;;;;23.88;17.50;;;2.10;99.90;;;;;;4935759;29;20206;-86
2021/01/03 06:32:41;;;;;;;26.60;20.23;;;2.10;99.90;;;;;;4935222;29;20223;-87
2021/01/03 06:35:14;;;;;;;25.60;19.37;;;2.10;99.90;;;;;;4935205;29;20538;-86
2021/01/03 06:37:45;;;;;;;25.70;19.17;;;2.20;99.90;;;;;;4935286;29;20530;-86
2021/01/03 06:40:20;;;;;;;24.67;19.25;;;2.10;99.90;;;;;;4943306;28;20195;-86
2021/01/03 06:43:15;;;;;;;26.67;20.87;;;2.10;99.90;;;;;;4954187;28;20230;-85
2021/01/03 06:46:40;;;;;;;23.83;18.80;;;2.10;99.90;;;;;;4952956;28;20482;-86
2021/01/03 06:49:36;;;;;;;31.50;20.50;;;2.10;99.90;;;;;;4932810;29;20200;-85
2021/01/03 06:52:53;;;;;;;31.38;21.15;;;2.10;99.90;;;;;;4929741;29;20223;-86
2021/01/03 06:55:39;;;;;;;27.88;21.33;;;2.20;99.90;;;;;;4932614;29;20195;-86
2021/01/03 06:58:38;;;;;;;27.85;20.75;;;2.20;99.90;;;;;;4934271;29;20207;-86
2021/01/03 07:01:17;;;;;;;25.98;20.20;;;2.20;99.90;;;;;;4930971;29;20263;-86
2021/01/03 07:03:48;;;;;;;27.55;20.42;;;2.10;99.90;;;;;;4933273;29;20232;-86
2021/01/03 07:06:15;;;;;;;29.50;21.67;;;2.20;99.90;;;;;;4931890;29;20701;-86
2021/01/03 07:08:44;;;;;;;28.20;20.58;;;2.20;99.90;;;;;;4933212;29;20762;-87
2021/01/03 07:11:42;;;;;;;28.20;20.47;;;2.20;99.90;;;;;;4932882;29;20597;-86
2021/01/03 07:14:11;;;;;;;25.58;18.42;;;2.20;99.90;;;;;;4933335;29;20439;-86
2021/01/03 07:16:54;;;;;;;27.23;20.20;;;2.20;99.90;;;;;;4932783;29;20661;-87
2021/01/03 07:19:35;;;;;;;28.23;20.35;;;2.20;99.90;;;;;;4932220;29;20199;-87
2021/01/03 07:22:07;;;;;;;25.13;19.98;;;2.20;99.90;;;;;;4932584;29;20222;-86
2021/01/03 07:24:38;;;;;;;25.73;20.27;;;2.30;99.90;;;;;;4931129;29;20299;-86
2021/01/03 07:27:36;;;;;;;24.88;20.35;;;2.20;99.90;;;;;;4933396;29;20585;-88
2021/01/03 07:30:33;;;;;;;26.27;19.15;;;2.20;99.90;;;;;;4934622;29;20204;-87
2021/01/03 07:33:15;;;;;;;26.98;18.73;;;2.20;99.90;;;;;;4947491;29;20222;-86
2021/01/03 07:35:42;;;;;;;25.20;19.30;;;2.30;99.90;;;;;;4954907;28;20207;-88
2021/01/03 07:38:31;;;;;;;29.00;20.45;;;2.30;99.90;;;;;;4953589;28;20202;-86
2021/01/03 07:41:07;;;;;;;26.83;17.90;;;2.30;99.90;;;;;;4946693;28;20206;-86
2021/01/03 07:44:00;;;;;;;27.63;20.23;;;2.30;99.90;;;;;;4933994;29;20278;-87
2021/01/03 07:46:51;;;;;;;26.80;20.00;;;2.20;99.90;;;;;;4933872;29;20608;-86
2021/01/03 07:49:31;;;;;;;24.00;19.48;;;2.30;99.90;;;;;;4934442;29;20446;-88
2021/01/03 07:51:57;;;;;;;29.25;20.08;;;2.30;99.90;;;;;;4934235;29;20226;-82
2021/01/03 07:54:24;;;;;;;25.58;19.20;;;2.30;99.90;;;;;;4933885;29;20200;-84
2021/01/03 07:56:50;;;;;;;29.93;20.37;;;2.30;99.90;;;;;;4934124;29;20633;-81
2021/01/03 07:59:17;;;;;;;24.95;18.33;;;2.20;99.90;;;;;;4949914;29;20490;-80
2021/01/03 08:01:48;;;;;;;26.10;20.20;;;2.20;99.90;;;;;;4953126;28;20212;-87
2021/01/03 08:04:25;;;;;;;27.65;20.42;;;2.30;99.90;;;;;;4953307;28;20235;-87
2021/01/03 08:07:01;;;;;;;28.20;20.40;;;2.30;99.90;;;;;;4952930;28;20202;-86
2021/01/03 08:09:28;;;;;;;25.48;18.67;;;2.40;99.90;;;;;;4953022;28;20429;-87
2021/01/03 08:12:03;;;;;;;26.37;18.60;;;2.40;99.90;;;;;;4941322;28;20592;-87
2021/01/03 08:14:33;;;;;;;23.75;19.98;;;2.40;99.90;;;;;;4933707;29;20827;-87
2021/01/03 08:17:00;;;;;;;23.40;18.73;;;2.50;99.90;;;;;;4934109;29;20230;-86
2021/01/03 08:19:27;;;;;;;23.90;18.60;;;2.50;99.90;;;;;;4933806;29;20258;-87
2021/01/03 08:21:55;;;;;;;23.80;18.60;;;2.60;99.90;;;;;;4933884;29;20272;-86
2021/01/03 08:24:22;;;;;;;25.40;18.65;;;2.60;99.90;;;;;;4933653;29;20236;-87
2021/01/03 08:26:51;;;;;;;26.90;19.50;;;2.60;99.90;;;;;;4952360;28;20206;-86
2021/01/03 08:29:23;;;;;;;28.05;20.88;;;2.70;99.90;;;;;;4952779;28;20694;-86
2021/01/03 08:31:53;;;;;;;23.27;17.77;;;2.70;99.90;;;;;;4953164;28;20224;-87
2021/01/03 08:34:24;;;;;;;25.97;18.87;;;2.70;99.90;;;;;;4952716;28;20444;-87
2021/01/03 08:36:50;;;;;;;25.10;18.67;;;2.70;99.90;;;;;;4952902;28;20455;-91
2021/01/03 08:39:17;;;;;;;25.35;19.90;;;2.70;99.90;;;;;;4954768;28;20211;-93
2021/01/03 08:41:52;;;;;;;27.10;20.17;;;2.80;99.90;;;;;;4954595;28;20204;-87
2021/01/03 08:44:23;;;;;;;28.00;18.97;;;2.80;99.90;;;;;;4956563;28;20230;-91
2021/01/03 08:46:59;;;;;;;20.53;17.77;;;2.90;99.90;;;;;;4956416;28;20492;-86
2021/01/03 08:49:25;;;;;;;25.97;20.10;;;3.00;99.90;;;;;;4956049;28;20458;-87
2021/01/03 08:52:08;;;;;;;23.40;17.67;;;3.00;99.90;;;;;;4956210;28;21012;-91
2021/01/03 08:54:34;;;;;;;27.30;19.97;;;2.90;99.90;;;;;;4956345;28;20436;-89
2021/01/03 08:57:03;;;;;;;25.30;20.40;;;2.90;99.90;;;;;;4956292;28;20444;-90
2021/01/03 08:59:30;;;;;;;27.30;20.03;;;2.90;99.90;;;;;;4955923;28;20487;-90
2021/01/03 09:01:57;;;;;;;26.13;18.13;;;2.90;99.90;;;;;;4956067;28;20466;-92
2021/01/03 09:04:24;;;;;;;22.70;17.17;;;2.90;99.90;;;;;;4956048;28;21087;-92
2021/01/03 09:06:55;;;;;;;23.55;17.65;;;3.00;99.90;;;;;;4956728;28;20458;-93
2021/01/03 09:09:24;;;;;;;24.77;18.60;;;3.00;99.90;;;;;;4957002;28;20200;-94
2021/01/03 09:11:54;;;;;;;19.67;16.20;;;3.00;99.90;;;;;;4956404;28;20534;-93
2021/01/03 09:14:27;;;;;;;23.93;18.00;;;3.00;99.90;;;;;;4955267;29;20428;-91
2021/01/03 09:16:56;;;;;;;22.33;18.00;;;3.10;99.90;;;;;;4937489;29;20441;-93
2021/01/03 09:19:28;;;;;;;22.60;16.73;;;3.10;99.90;;;;;;4937033;29;20546;-92
2021/01/03 09:21:58;;;;;;;20.83;16.77;;;3.10;99.90;;;;;;4937052;29;20483;-87
2021/01/03 09:24:27;;;;;;;24.10;17.10;;;3.20;99.90;;;;;;4936392;29;20483;-88
2021/01/03 09:26:55;;;;;;;21.23;16.75;;;3.20;99.90;;;;;;4936488;29;20441;-87
2021/01/03 09:29:25;;;;;;;21.70;16.30;;;3.20;99.90;;;;;;4936789;29;20674;-86
2021/01/03 09:32:16;;;;;;;22.03;17.57;;;3.20;99.90;;;;;;4944130;28;20479;-87
2021/01/03 09:35:07;;;;;;;21.33;17.07;;;3.20;99.90;;;;;;4944462;28;20464;-87
2021/01/03 09:37:35;;;;;;;18.23;15.95;;;3.20;99.90;;;;;;4936334;29;20502;-89
2021/01/03 09:40:30;;;;;;;18.23;15.03;;;3.30;99.90;;;;;;4936638;29;20205;-88
2021/01/03 09:43:05;;;;;;;17.97;15.57;;;3.30;99.90;;;;;;4936281;29;21012;-87
2021/01/03 09:45:49;;;;;;;23.03;18.20;;;3.30;99.90;;;;;;4936404;29;20456;-87
2021/01/03 09:48:27;;;;;;;17.97;15.80;;;3.30;99.90;;;;;;4950774;29;20490;-88
2021/01/03 09:51:05;;;;;;;19.37;15.40;;;3.30;99.90;;;;;;4938416;29;20964;-87
2021/01/03 09:53:37;;;;;;;23.33;15.80;;;3.20;99.90;;;;;;4936219;29;20469;-89
2021/01/03 09:56:15;;;;;;;19.70;15.70;;;3.20;99.90;;;;;;4935821;29;20867;-88
2021/01/03 09:58:44;;;;;;;21.20;17.53;;;3.30;99.90;;;;;;4936052;29;20480;-86
2021/01/03 10:01:25;;;;;;;19.60;16.07;;;3.40;99.90;;;;;;4933794;29;20476;-88
2021/01/03 10:03:51;;;;;;;17.67;14.70;;;3.40;99.90;;;;;;4935669;29;20483;-88
2021/01/03 10:06:20;;;;;;;19.00;15.67;;;3.40;99.90;;;;;;4952579;28;20884;-88
2021/01/03 10:08:47;;;;;;;19.83;15.77;;;3.40;99.90;;;;;;4955074;28;20526;-89
2021/01/03 10:11:29;;;;;;;20.30;16.23;;;3.50;99.90;;;;;;4955035;29;20948;-87
2021/01/03 10:13:58;;;;;;;20.97;16.93;;;3.60;99.90;;;;;;4954602;29;20969;-89
2021/01/03 10:16:28;;;;;;;18.17;16.17;;;3.80;99.90;;;;;;4954366;28;20454;-89
2021/01/03 10:18:54;;;;;;;18.00;15.23;;;3.90;99.90;;;;;;4955002;28;20495;-87
2021/01/03 10:21:32;;;;;;;21.87;16.60;;;4.00;99.90;;;;;;4952930;28;20455;-89
2021/01/03 10:24:00;;;;;;;21.03;17.07;;;4.10;99.90;;;;;;4954830;29;21023;-87
2021/01/03 10:26:29;;;;;;;18.13;16.03;;;4.20;99.90;;;;;;4954318;28;20452;-87
2021/01/03 10:28:55;;;;;;;20.83;16.40;;;4.30;99.90;;;;;;4954553;28;20500;-88
2021/01/03 10:31:23;;;;;;;24.67;16.30;;;4.40;99.90;;;;;;4954459;28;20471;-87
2021/01/03 10:33:49;;;;;;;18.90;16.00;;;4.40;99.90;;;;;;4953237;28;20480;-88
2021/01/03 10:36:21;;;;;;;18.03;14.97;;;4.30;99.90;;;;;;4934349;29;20971;-87
2021/01/03 10:38:48;;;;;;;20.90;16.30;;;4.30;99.90;;;;;;4935206;29;20456;-87
2021/01/03 10:41:15;;;;;;;19.13;16.00;;;4.20;99.90;;;;;;4934979;29;20562;-88
2021/01/03 10:43:43;;;;;;;23.70;18.57;;;4.20;99.90;;;;;;4934917;29;20496;-88
2021/01/03 10:46:09;;;;;;;18.90;16.23;;;4.10;99.90;;;;;;4934733;29;20520;-87
2021/01/03 10:48:35;;;;;;;22.97;18.03;;;4.00;99.90;;;;;;4934791;29;20454;-87
2021/01/03 10:51:02;;;;;;;22.67;16.40;;;3.90;99.90;;;;;;4935074;29;20449;-87
2021/01/03 10:53:28;;;;;;;20.80;17.40;;;3.90;99.90;;;;;;4934723;29;20520;-88
2021/01/03 10:55:55;;;;;;;21.33;16.77;;;3.90;99.90;;;;;;4934667;29;20434;-88
2021/01/03 10:58:21;;;;;;;19.50;15.63;;;3.80;99.90;;;;;;4934884;29;20460;-88
2021/01/03 11:00:47;;;;;;;21.60;17.07;;;3.80;99.90;;;;;;4934682;29;20445;-87
2021/01/03 11:03:13;;;;;;;20.53;16.00;;;3.90;99.90;;;;;;4934020;29;20638;-88
2021/01/03 11:05:40;;;;;;;18.63;16.20;;;3.90;99.90;;;;;;4946509;28;20526;-87
2021/01/03 11:08:06;;;;;;;19.77;16.80;;;3.90;99.90;;;;;;4953768;28;20445;-88
2021/01/03 11:10:32;;;;;;;17.80;15.90;;;4.00;99.90;;;;;;4953739;28;20949;-87
2021/01/03 11:12:59;;;;;;;20.83;16.30;;;4.00;99.90;;;;;;4953347;28;20523;-87
2021/01/03 11:15:25;;;;;;;17.60;15.00;;;4.00;99.90;;;;;;4953379;28;20519;-87
2021/01/03 11:17:51;;;;;;;19.23;16.20;;;4.00;99.90;;;;;;4953723;29;20449;-88
2021/01/03 11:20:17;;;;;;;17.90;14.33;;;4.00;99.90;;;;;;4953775;29;20958;-88
2021/01/03 11:22:44;;;;;;;19.60;15.73;;;4.10;99.90;;;;;;4937441;29;21284;-89
2021/01/03 11:25:11;;;;;;;19.63;15.17;;;4.10;99.90;;;;;;4934241;29;20480;-87
2021/01/03 11:27:38;;;;;;;18.10;15.93;;;4.10;99.90;;;;;;4934431;29;20536;-87
2021/01/03 11:30:06;;;;;;;19.53;17.10;;;4.10;99.90;;;;;;4934303;29;20438;-88
2021/01/03 11:32:32;;;;;;;19.70;17.07;;;4.20;99.90;;;;;;4934280;29;21069;-87
2021/01/03 11:34:59;;;;;;;19.30;16.90;;;4.20;99.90;;;;;;4943835;28;20459;-87
2021/01/03 11:37:27;;;;;;;19.43;16.33;;;4.20;99.90;;;;;;4953662;28;21005;-88
2021/01/03 11:39:54;;;;;;;23.10;18.57;;;4.20;99.90;;;;;;4953547;28;20452;-88
2021/01/03 11:42:26;;;;;;;19.20;16.83;;;4.30;99.90;;;;;;4953238;28;22338;-87
2021/01/03 11:44:53;;;;;;;21.67;17.67;;;4.30;99.90;;;;;;4953212;28;20455;-87
2021/01/03 11:47:20;;;;;;;22.90;18.57;;;4.30;99.90;;;;;;4953342;28;20441;-88
2021/01/03 11:49:47;;;;;;;19.57;16.30;;;4.20;99.90;;;;;;4936609;29;20477;-87
2021/01/03 11:52:14;;;;;;;24.10;17.83;;;4.20;99.90;;;;;;4934113;29;20473;-87
2021/01/03 11:54:40;;;;;;;21.20;17.83;;;4.20;99.90;;;;;;4933833;29;20468;-87
2021/01/03 11:57:07;;;;;;;20.40;17.40;;;4.20;99.90;;;;;;4934156;29;20504;-88
2021/01/03 11:59:33;;;;;;;20.23;17.60;;;4.20;99.90;;;;;;4934183;29;20453;-88
2021/01/03 12:02:02;;;;;;;23.37;18.00;;;4.20;99.90;;;;;;4939016;29;20470;-87
2021/01/03 12:04:29;;;;;;;22.43;17.43;;;4.10;99.90;;;;;;4949382;28;20494;-87
2021/01/03 12:06:56;;;;;;;20.60;17.07;;;4.20;99.90;;;;;;4946238;29;20556;-87
2021/01/03 12:09:23;;;;;;;25.93;18.57;;;4.10;99.90;;;;;;4933457;29;20943;-87
2021/01/03 12:11:53;;;;;;;23.13;18.20;;;4.20;99.90;;;;;;4933792;29;20855;-87
2021/01/03 12:14:19;;;;;;;20.87;17.60;;;4.20;99.90;;;;;;4935179;29;20454;-86
2021/01/03 12:16:46;;;;;;;21.03;18.07;;;4.20;99.90;;;;;;4937085;29;20453;-87
2021/01/03 12:19:12;;;;;;;25.10;19.87;;;4.30;99.90;;;;;;4936999;29;20449;-87
2021/01/03 12:21:39;;;;;;;24.70;18.13;;;4.30;99.90;;;;;;4938351;29;20967;-88
2021/01/03 12:24:06;;;;;;;26.10;19.60;;;4.30;99.90;;;;;;4936867;29;20512;-86
2021/01/03 12:26:37;;;;;;;28.20;21.60;;;4.30;99.90;;;;;;4936747;29;20457;-86
2021/01/03 12:29:04;;;;;;;26.13;18.90;;;4.30;99.90;;;;;;4935444;29;20425;-86
2021/01/03 12:31:35;;;;;;;23.50;20.40;;;4.30;99.90;;;;;;4936754;29;20437;-87
2021/01/03 12:34:01;;;;;;;23.23;19.90;;;4.30;99.90;;;;;;4934969;29;20553;-86
2021/01/03 12:36:27;;;;;;;25.90;21.13;;;4.30;99.90;;;;;;4936385;29;20453;-87
2021/01/03 12:38:54;;;;;;;25.10;18.20;;;4.30;99.90;;;;;;4934857;29;20449;-87
2021/01/03 12:41:22;;;;;;;24.30;19.07;;;4.30;99.90;;;;;;4936789;29;20862;-88
2021/01/03 12:43:49;;;;;;;24.20;20.67;;;4.10;99.90;;;;;;4937341;29;20495;-88
2021/01/03 12:46:25;;;;;;;26.73;20.20;;;4.20;99.90;;;;;;4943265;29;20856;-87
2021/01/03 12:48:52;;;;;;;24.03;18.53;;;4.20;99.90;;;;;;4937235;29;20463;-91
2021/01/03 12:51:18;;;;;;;23.50;19.13;;;4.20;99.90;;;;;;4936932;29;20838;-90
2021/01/03 12:53:44;;;;;;;25.47;21.00;;;4.20;99.90;;;;;;4937775;29;20464;-87
2021/01/03 12:56:12;;;;;;;23.93;19.00;;;4.20;99.90;;;;;;4930332;29;20472;-86
2021/01/03 12:58:38;;;;;;;26.63;20.57;;;4.10;99.90;;;;;;4935831;29;20457;-87
2021/01/03 13:01:04;;;;;;;23.47;19.90;;;4.10;99.90;;;;;;4937005;29;20473;-87
2021/01/03 13:03:31;;;;;;;25.07;19.20;;;4.10;99.90;;;;;;4936495;29;20496;-86
2021/01/03 13:05:57;;;;;;;26.60;21.33;;;4.10;99.90;;;;;;4936741;29;20457;-89
2021/01/03 13:08:23;;;;;;;23.03;19.23;;;4.10;99.90;;;;;;4936836;29;20457;-88
2021/01/03 13:10:49;;;;;;;24.87;20.60;;;4.10;99.90;;;;;;4946350;28;20449;-90
2021/01/03 13:13:16;;;;;;;25.17;19.03;;;4.10;99.90;;;;;;4955951;28;20476;-89